createdAt,value
2022-11-20T00:01:57.359Z,52.49
2022-11-20T00:04:01.569Z,52.46
2022-11-20T00:06:02.894Z,52.00
2022-11-20T00:08:04.161Z,51.70
2022-11-20T00:10:05.433Z,51.77
2022-11-20T00:12:06.732Z,52.04
2022-11-20T00:14:08.017Z,51.79
2022-11-20T00:16:09.322Z,51.92
2022-11-20T00:18:10.609Z,52.29
2022-11-20T00:20:11.884Z,52.67
2022-11-20T00:22:13.209Z,52.61
2022-11-20T00:24:14.488Z,52.59
2022-11-20T00:26:15.805Z,53.11
2022-11-20T00:28:17.160Z,52.71
2022-11-20T00:30:18.502Z,53.26
2022-11-20T00:32:20.063Z,53.21
2022-11-20T00:34:21.379Z,53.42
2022-11-20T00:36:22.669Z,53.48
2022-11-20T00:38:23.968Z,53.84
2022-11-20T00:40:25.236Z,53.83
2022-11-20T00:42:26.661Z,54.42
2022-11-20T00:44:27.953Z,54.21
2022-11-20T00:46:29.366Z,54.35
2022-11-20T00:48:30.718Z,54.34
2022-11-20T00:50:32.012Z,54.76
2022-11-20T00:52:33.345Z,54.81
2022-11-20T00:54:34.643Z,54.71
2022-11-20T00:56:35.940Z,54.85
2022-11-20T00:58:37.285Z,54.73
2022-11-20T01:00:38.609Z,54.75
2022-11-20T01:02:39.951Z,54.73
2022-11-20T01:04:41.238Z,54.86
2022-11-20T01:06:42.524Z,54.92
2022-11-20T01:08:43.852Z,55.03
2022-11-20T01:10:45.139Z,54.73
2022-11-20T01:13:06.422Z,55.01
2022-11-20T01:15:07.868Z,54.81
2022-11-20T01:17:09.161Z,54.37
2022-11-20T01:19:10.664Z,54.58
2022-11-20T01:21:11.976Z,53.89
2022-11-20T01:23:13.296Z,53.87
2022-11-20T01:25:14.629Z,53.25
2022-11-20T01:27:15.916Z,53.57
2022-11-20T01:29:17.398Z,53.33
2022-11-20T01:31:18.689Z,53.25
2022-11-20T01:33:19.987Z,53.30
2022-11-20T01:35:21.266Z,53.41
2022-11-20T01:37:22.568Z,53.66
2022-11-20T01:39:24.229Z,53.69
2022-11-20T01:41:44.373Z,53.90
2022-11-20T01:43:45.657Z,54.07
2022-11-20T01:45:46.924Z,54.20
2022-11-20T01:47:49.336Z,54.09
2022-11-20T01:49:50.672Z,54.31
2022-11-20T01:51:51.953Z,54.69
2022-11-20T01:53:53.252Z,54.81
2022-11-20T01:55:54.706Z,54.79
2022-11-20T01:57:55.988Z,54.71
2022-11-20T01:59:57.262Z,55.37
2022-11-20T02:01:58.559Z,55.51
2022-11-20T02:03:59.861Z,55.69
2022-11-20T02:06:01.146Z,55.34
2022-11-20T02:08:02.479Z,55.92
2022-11-20T02:10:03.756Z,55.64
2022-11-20T02:12:05.264Z,55.69
2022-11-20T02:14:06.581Z,55.94
2022-11-20T02:16:07.852Z,55.70
2022-11-20T02:18:09.265Z,55.87
2022-11-20T02:20:10.575Z,56.09
2022-11-20T02:22:11.846Z,56.37
2022-11-20T02:24:13.142Z,56.52
2022-11-20T02:26:14.433Z,56.39
2022-11-20T02:28:15.741Z,56.51
2022-11-20T02:30:17.030Z,55.71
2022-11-20T02:32:18.317Z,55.59
2022-11-20T02:34:19.643Z,55.30
2022-11-20T02:36:20.929Z,55.37
2022-11-20T02:38:22.219Z,55.16
2022-11-20T02:40:23.489Z,55.33
2022-11-20T02:42:24.781Z,54.62
2022-11-20T02:44:26.226Z,54.52
2022-11-20T02:46:27.511Z,53.97
2022-11-20T02:48:32.706Z,54.26
2022-11-20T02:50:35.200Z,54.05
2022-11-20T02:52:36.880Z,54.36
2022-11-20T02:54:38.149Z,54.34
2022-11-20T02:56:39.483Z,54.86
2022-11-20T02:58:40.779Z,55.02
2022-11-20T03:00:42.111Z,54.91
2022-11-20T03:02:43.417Z,55.08
2022-11-20T03:04:44.729Z,54.97
2022-11-20T03:06:46.009Z,55.09
2022-11-20T03:08:47.373Z,55.29
2022-11-20T03:10:48.643Z,55.68
2022-11-20T03:12:49.975Z,55.60
2022-11-20T03:14:53.286Z,55.76
2022-11-20T03:16:54.812Z,55.43
2022-11-20T03:18:56.118Z,55.93
2022-11-20T03:20:58.812Z,55.67
2022-11-20T03:23:00.149Z,56.04
2022-11-20T03:25:01.476Z,56.12
2022-11-20T03:27:02.909Z,56.20
2022-11-20T03:29:04.220Z,56.04
2022-11-20T03:31:05.541Z,55.99
2022-11-20T03:33:06.873Z,56.06
2022-11-20T03:35:08.164Z,56.21
2022-11-20T03:37:09.505Z,55.80
2022-11-20T03:39:10.790Z,55.95
2022-11-20T03:41:12.072Z,56.24
2022-11-20T03:43:13.400Z,56.33
2022-11-20T03:45:14.935Z,56.09
2022-11-20T03:47:16.222Z,56.58
2022-11-20T03:49:17.723Z,56.42
2022-11-20T03:51:19.024Z,56.13
2022-11-20T03:53:20.780Z,55.62
2022-11-20T03:55:22.105Z,55.48
2022-11-20T03:57:23.371Z,55.42
2022-11-20T03:59:24.657Z,55.12
2022-11-20T04:01:25.983Z,54.63
2022-11-20T04:03:27.332Z,54.43
2022-11-20T04:05:28.620Z,54.17
2022-11-20T04:07:29.978Z,54.34
2022-11-20T04:09:31.280Z,54.16
2022-11-20T04:11:32.583Z,54.21
2022-11-20T04:13:33.944Z,54.47
2022-11-20T04:15:38.345Z,54.80
2022-11-20T04:17:40.024Z,54.93
2022-11-20T04:19:41.359Z,54.75
2022-11-20T04:21:42.680Z,54.98
2022-11-20T04:23:43.967Z,55.36
2022-11-20T04:25:45.245Z,55.12
2022-11-20T04:27:46.710Z,55.28
2022-11-20T04:29:48.016Z,55.34
2022-11-20T04:31:49.385Z,55.46
2022-11-20T04:33:50.732Z,55.46
2022-11-20T04:35:52.052Z,55.53
2022-11-20T04:37:53.340Z,55.63
2022-11-20T04:39:54.783Z,55.77
2022-11-20T04:42:14.836Z,55.82
2022-11-20T04:44:16.153Z,56.23
2022-11-20T04:46:17.471Z,56.20
2022-11-20T04:48:18.772Z,56.48
2022-11-20T04:50:20.057Z,56.50
2022-11-20T04:52:21.383Z,56.66
2022-11-20T04:54:22.705Z,56.38
2022-11-20T04:56:24.009Z,56.73
2022-11-20T04:58:25.327Z,56.79
2022-11-20T05:00:26.614Z,56.77
2022-11-20T05:02:28.284Z,56.84
2022-11-20T05:04:29.608Z,56.13
2022-11-20T05:06:30.884Z,56.10
2022-11-20T05:08:32.216Z,56.18
2022-11-20T05:10:33.523Z,55.82
2022-11-20T05:12:34.837Z,55.23
2022-11-20T05:14:36.168Z,54.96
2022-11-20T05:16:37.751Z,54.85
2022-11-20T05:18:39.037Z,54.87
2022-11-20T05:20:40.336Z,54.65
2022-11-20T05:22:41.628Z,54.59
2022-11-20T05:24:43.096Z,54.43
2022-11-20T05:28:45.711Z,54.80
2022-11-20T05:30:46.993Z,55.32
2022-11-20T05:32:48.312Z,55.22
2022-11-20T05:34:49.652Z,55.63
2022-11-20T05:36:51.115Z,55.52
2022-11-20T05:38:55.467Z,55.35
2022-11-20T05:40:59.528Z,55.15
2022-11-20T05:43:00.845Z,55.54
2022-11-20T05:45:02.133Z,55.87
2022-11-20T05:47:03.414Z,56.10
2022-11-20T05:49:04.757Z,56.27
2022-11-20T05:51:06.043Z,56.46
2022-11-20T05:53:07.325Z,56.12
2022-11-20T05:55:08.608Z,56.25
2022-11-20T05:57:09.888Z,56.63
2022-11-20T05:59:11.222Z,56.37
2022-11-20T06:01:12.722Z,56.87
2022-11-20T06:03:14.025Z,56.49
2022-11-20T06:05:15.427Z,56.67
2022-11-20T06:07:16.996Z,56.82
2022-11-20T06:09:18.512Z,57.07
2022-11-20T06:11:20.035Z,56.58
2022-11-20T06:13:21.315Z,56.95
2022-11-20T06:15:22.596Z,56.94
2022-11-20T06:17:23.861Z,56.46
2022-11-20T06:19:25.165Z,56.71
2022-11-20T06:21:26.449Z,56.06
2022-11-20T06:23:27.714Z,56.07
2022-11-20T06:25:29.053Z,55.76
2022-11-20T06:27:30.365Z,55.67
2022-11-20T06:29:34.135Z,55.56
2022-11-20T06:31:38.544Z,55.51
2022-11-20T06:33:39.827Z,55.17
2022-11-20T06:35:41.319Z,54.66
2022-11-20T06:37:42.612Z,54.50
2022-11-20T06:39:43.932Z,54.80
2022-11-20T06:41:45.252Z,55.06
2022-11-20T06:43:46.549Z,55.27
2022-11-20T06:45:47.872Z,55.08
2022-11-20T06:47:49.218Z,55.09
2022-11-20T06:49:50.517Z,55.15
2022-11-20T06:51:51.849Z,55.18
2022-11-20T06:53:53.137Z,55.70
2022-11-20T06:55:54.424Z,55.86
2022-11-20T06:57:56.077Z,56.00
2022-11-20T06:59:57.428Z,56.54
2022-11-20T07:01:58.706Z,56.30
2022-11-20T07:03:59.988Z,56.54
2022-11-20T07:06:01.288Z,56.73
2022-11-20T07:08:02.580Z,57.10
2022-11-20T07:10:03.968Z,57.57
2022-11-20T07:12:05.249Z,57.79
2022-11-20T07:14:06.622Z,57.49
2022-11-20T07:16:07.948Z,57.61
2022-11-20T07:18:09.229Z,58.07
2022-11-20T07:20:10.557Z,58.51
2022-11-20T07:22:11.994Z,58.36
2022-11-20T07:24:13.264Z,58.67
2022-11-20T07:26:14.578Z,58.49
2022-11-20T07:28:15.928Z,58.45
2022-11-20T07:30:17.213Z,58.64
2022-11-20T07:32:18.499Z,58.08
2022-11-20T07:34:20.940Z,57.49
2022-11-20T07:36:22.255Z,42.22
2022-11-20T07:38:23.537Z,36.09
2022-11-20T07:40:24.820Z,36.95
2022-11-20T07:42:26.121Z,43.72
2022-11-20T07:44:27.493Z,43.12
2022-11-20T07:46:28.760Z,42.89
2022-11-20T07:48:30.040Z,43.77
2022-11-20T07:50:31.379Z,44.32
2022-11-20T07:52:32.674Z,45.32
2022-11-20T07:54:34.247Z,45.26
2022-11-20T07:56:35.805Z,45.78
2022-11-20T07:58:37.536Z,46.60
2022-11-20T08:00:38.883Z,46.99
2022-11-20T08:02:40.374Z,47.27
2022-11-20T08:04:41.670Z,47.53
2022-11-20T08:06:42.990Z,48.22
2022-11-20T08:08:44.330Z,48.04
2022-11-20T08:10:45.617Z,48.59
2022-11-20T08:13:05.716Z,48.71
2022-11-20T08:15:12.605Z,48.88
2022-11-20T08:17:14.516Z,49.11
2022-11-20T08:19:15.827Z,49.24
2022-11-20T08:21:17.142Z,49.28
2022-11-20T08:23:18.428Z,49.42
2022-11-20T08:25:19.697Z,49.94
2022-11-20T08:27:21.005Z,50.21
2022-11-20T08:29:22.703Z,50.25
2022-11-20T08:31:24.224Z,50.66
2022-11-20T08:33:25.493Z,51.36
2022-11-20T08:35:26.788Z,50.99
2022-11-20T08:37:28.232Z,51.17
2022-11-20T08:39:29.551Z,51.69
2022-11-20T08:41:33.920Z,51.37
2022-11-20T08:43:35.290Z,51.71
2022-11-20T08:45:36.624Z,51.78
2022-11-20T08:47:37.953Z,51.77
2022-11-20T08:49:39.240Z,52.08
2022-11-20T08:51:40.568Z,51.98
2022-11-20T08:53:42.220Z,52.19
2022-11-20T08:55:43.541Z,52.64
2022-11-20T08:57:49.523Z,52.55
2022-11-20T09:00:06.026Z,52.43
2022-11-20T09:02:10.821Z,52.94
2022-11-20T09:04:12.853Z,53.06
2022-11-20T09:06:20.324Z,52.84
2022-11-20T09:08:21.917Z,39.31
2022-11-20T09:12:44.537Z,37.42
2022-11-20T09:14:47.867Z,36.77
2022-11-20T09:16:51.083Z,40.13
2022-11-20T09:19:02.224Z,43.27
2022-11-20T09:21:13.893Z,42.35
2022-11-20T09:23:15.297Z,41.98
2022-11-20T09:25:16.584Z,42.35
2022-11-20T09:27:22.677Z,43.32
2022-11-20T09:29:24.305Z,43.15
2022-11-20T09:31:26.445Z,43.27
2022-11-20T09:33:27.780Z,43.69
2022-11-20T09:35:29.135Z,44.16
2022-11-20T09:37:30.437Z,44.82
2022-11-20T09:39:31.743Z,45.06
2022-11-20T09:41:33.052Z,45.22
2022-11-20T09:43:35.742Z,45.05
2022-11-20T09:45:37.684Z,45.17
2022-11-20T09:47:38.997Z,45.64
2022-11-20T09:49:40.880Z,46.10
2022-11-20T09:51:42.711Z,45.71
2022-11-20T09:53:44.024Z,45.51
2022-11-20T09:55:45.340Z,46.41
2022-11-20T09:57:46.620Z,46.15
2022-11-20T09:59:47.902Z,46.57
2022-11-20T10:01:49.177Z,46.48
2022-11-20T10:03:53.405Z,46.87
2022-11-20T10:05:54.697Z,46.35
2022-11-20T10:07:56.294Z,46.97
2022-11-20T10:09:57.945Z,47.27
2022-11-20T10:11:59.285Z,47.45
2022-11-20T10:14:00.605Z,47.70
2022-11-20T10:16:02.073Z,47.61
2022-11-20T10:18:03.353Z,47.41
2022-11-20T10:20:07.861Z,47.69
2022-11-20T10:22:09.121Z,48.27
2022-11-20T10:24:11.374Z,48.13
2022-11-20T10:26:13.320Z,48.10
2022-11-20T10:28:14.606Z,48.09
2022-11-20T10:30:15.912Z,48.54
2022-11-20T10:32:17.228Z,48.60
2022-11-20T10:34:22.595Z,48.30
2022-11-20T10:36:24.430Z,49.01
2022-11-20T10:38:25.732Z,48.64
2022-11-20T10:40:27.056Z,49.22
2022-11-20T10:42:28.382Z,48.80
2022-11-20T10:44:49.412Z,48.83
2022-11-20T10:46:53.731Z,48.87
2022-11-20T10:48:55.022Z,49.33
2022-11-20T10:50:56.285Z,48.96
2022-11-20T10:52:58.169Z,49.26
2022-11-20T10:54:59.491Z,48.92
2022-11-20T10:57:00.803Z,48.73
2022-11-20T10:59:02.345Z,48.67
2022-11-20T11:01:04.423Z,48.55
2022-11-20T11:03:05.740Z,48.37
2022-11-20T11:05:11.633Z,48.27
2022-11-20T11:07:15.546Z,48.41
2022-11-20T11:09:16.872Z,48.36
2022-11-20T11:11:18.319Z,48.41
2022-11-20T11:13:19.644Z,48.04
2022-11-20T11:15:20.989Z,47.94
2022-11-20T11:17:22.484Z,48.26
2022-11-20T11:19:24.002Z,47.97
2022-11-20T11:21:25.522Z,48.15
2022-11-20T11:23:26.924Z,48.30
2022-11-20T11:25:31.433Z,48.42
2022-11-20T11:27:32.729Z,48.21
2022-11-20T11:29:34.016Z,48.54
2022-11-20T11:31:35.408Z,48.67
2022-11-20T11:33:36.961Z,48.74
2022-11-20T11:35:38.282Z,48.58
2022-11-20T11:37:39.566Z,48.41
2022-11-20T11:39:40.871Z,48.67
2022-11-20T11:41:42.152Z,48.89
2022-11-20T11:44:02.196Z,49.03
2022-11-20T11:46:03.519Z,48.86
2022-11-20T11:48:04.839Z,48.67
2022-11-20T11:50:06.139Z,48.97
2022-11-20T11:52:07.484Z,48.83
2022-11-20T11:54:08.766Z,48.86
2022-11-20T11:56:10.092Z,49.42
2022-11-20T11:58:11.409Z,49.15
2022-11-20T12:00:13.006Z,49.32
2022-11-20T12:02:14.337Z,49.39
2022-11-20T12:04:15.672Z,48.97
2022-11-20T12:06:16.962Z,48.85
2022-11-20T12:08:18.332Z,48.94
2022-11-20T12:10:19.697Z,49.15
2022-11-20T12:12:20.985Z,49.24
2022-11-20T12:14:24.958Z,49.68
2022-11-20T12:16:26.358Z,49.45
2022-11-20T12:18:27.693Z,49.64
2022-11-20T12:20:28.976Z,49.19
2022-11-20T12:22:30.291Z,49.68
2022-11-20T12:24:31.580Z,49.74
2022-11-20T12:26:32.858Z,50.42
2022-11-20T12:28:34.615Z,48.58
2022-11-20T12:30:36.463Z,49.13
2022-11-20T12:32:37.729Z,49.26
2022-11-20T12:34:39.147Z,48.60
2022-11-20T12:36:40.481Z,48.37
2022-11-20T12:38:41.768Z,48.08
2022-11-20T12:40:43.084Z,48.19
2022-11-20T12:43:03.125Z,47.49
2022-11-20T12:45:10.292Z,48.30
2022-11-20T12:47:11.566Z,47.72
2022-11-20T12:49:12.848Z,48.13
2022-11-20T12:51:15.485Z,48.31
2022-11-20T12:53:17.473Z,49.30
2022-11-20T12:55:18.810Z,48.46
2022-11-20T12:57:20.128Z,48.37
2022-11-20T12:59:21.615Z,48.39
2022-11-20T13:01:41.556Z,48.38
2022-11-20T13:03:45.713Z,48.83
2022-11-20T13:05:46.996Z,48.88
2022-11-20T13:07:48.326Z,49.16
2022-11-20T13:09:49.597Z,49.11
2022-11-20T13:11:51.535Z,49.81
2022-11-20T13:13:52.828Z,50.35
2022-11-20T13:15:54.109Z,51.68
2022-11-20T13:17:55.415Z,50.74
2022-11-20T13:19:56.739Z,49.78
2022-11-20T13:21:58.060Z,50.08
2022-11-20T13:23:59.342Z,50.00
2022-11-20T13:26:04.517Z,49.92
2022-11-20T13:28:05.820Z,50.11
2022-11-20T13:30:07.132Z,50.48
2022-11-20T13:32:08.504Z,50.72
2022-11-20T13:34:09.833Z,50.88
2022-11-20T13:36:11.117Z,51.01
2022-11-20T13:38:12.465Z,50.82
2022-11-20T13:40:13.816Z,50.35
2022-11-20T13:42:15.441Z,49.81
2022-11-20T13:44:16.774Z,49.88
2022-11-20T13:46:25.299Z,49.85
2022-11-20T13:48:26.625Z,49.93
2022-11-20T13:50:27.921Z,49.65
2022-11-20T13:52:29.227Z,49.64
2022-11-20T13:54:30.571Z,49.47
2022-11-20T13:56:31.865Z,49.53
2022-11-20T13:58:33.514Z,50.19
2022-11-20T14:00:34.868Z,49.93
2022-11-20T14:02:36.182Z,49.36
2022-11-20T14:04:37.539Z,49.36
2022-11-20T14:06:38.821Z,49.51
2022-11-20T14:08:40.556Z,49.71
2022-11-20T14:10:41.857Z,49.81
2022-11-20T14:12:43.185Z,50.10
2022-11-20T14:14:47.221Z,50.41
2022-11-20T14:16:48.526Z,50.36
2022-11-20T14:18:49.857Z,50.58
2022-11-20T14:20:56.835Z,50.61
2022-11-20T14:22:58.166Z,50.55
2022-11-20T14:24:59.472Z,51.10
2022-11-20T14:27:01.072Z,51.05
2022-11-20T14:29:02.399Z,51.09
2022-11-20T14:31:03.680Z,51.14
2022-11-20T14:33:04.971Z,50.90
2022-11-20T14:35:06.265Z,51.31
2022-11-20T14:37:11.454Z,51.53
2022-11-20T14:39:16.630Z,51.81
2022-11-20T14:41:18.105Z,52.02
2022-11-20T14:43:19.585Z,51.85
2022-11-20T14:45:20.868Z,51.76
2022-11-20T14:47:22.413Z,51.74
2022-11-20T14:49:26.821Z,52.11
2022-11-20T14:51:28.285Z,51.73
2022-11-20T14:53:29.568Z,51.60
2022-11-20T14:55:30.863Z,51.59
2022-11-20T14:57:32.216Z,51.46
2022-11-20T14:59:33.504Z,50.86
2022-11-20T15:01:34.851Z,50.85
2022-11-20T15:03:36.426Z,50.69
2022-11-20T15:05:37.813Z,50.82
2022-11-20T15:07:41.122Z,50.68
2022-11-20T15:09:42.495Z,50.85
2022-11-20T15:11:43.789Z,50.58
2022-11-20T15:13:45.076Z,50.92
2022-11-20T15:15:46.392Z,50.64
2022-11-20T15:17:47.728Z,51.17
2022-11-20T15:19:49.015Z,51.22
2022-11-20T15:21:50.388Z,51.83
2022-11-20T15:23:51.797Z,51.56
2022-11-20T15:25:53.191Z,51.82
2022-11-20T15:27:57.442Z,52.11
2022-11-20T15:30:01.597Z,52.55
2022-11-20T15:32:02.883Z,52.46
2022-11-20T15:34:04.169Z,52.14
2022-11-20T15:36:05.448Z,52.85
2022-11-20T15:38:06.802Z,51.77
2022-11-20T15:40:08.129Z,51.60
2022-11-20T15:42:09.457Z,51.26
2022-11-20T15:44:10.844Z,51.58
2022-11-20T15:46:12.202Z,51.18
2022-11-20T15:48:13.545Z,51.48
2022-11-20T15:50:14.869Z,51.25
2022-11-20T15:52:16.153Z,52.34
2022-11-20T15:54:19.047Z,51.34
2022-11-20T15:56:23.353Z,51.06
2022-11-20T15:58:25.301Z,50.93
2022-11-20T16:00:26.601Z,51.33
2022-11-20T16:02:27.937Z,50.63
2022-11-20T16:04:29.339Z,50.96
2022-11-20T16:06:30.717Z,50.13
2022-11-20T16:08:32.045Z,50.35
2022-11-20T16:10:33.324Z,50.19
2022-11-20T16:12:53.153Z,50.48
2022-11-20T16:15:13.892Z,49.93
2022-11-20T16:17:15.248Z,50.25
2022-11-20T16:19:16.689Z,49.86
2022-11-20T16:21:33.527Z,50.39
2022-11-20T16:23:38.290Z,50.23
2022-11-20T16:25:39.661Z,50.52
2022-11-20T16:27:40.953Z,50.48
2022-11-20T16:29:42.257Z,50.73
2022-11-20T16:31:46.262Z,50.82
2022-11-20T16:33:47.590Z,51.41
2022-11-20T16:35:48.877Z,50.89
2022-11-20T16:37:50.184Z,51.70
2022-11-20T16:39:51.493Z,51.67
2022-11-20T16:41:52.834Z,51.29
2022-11-20T16:43:57.109Z,51.56
2022-11-20T16:45:58.397Z,51.64
2022-11-20T16:47:59.696Z,51.98
2022-11-20T16:50:00.990Z,52.04
2022-11-20T16:52:05.081Z,51.56
2022-11-20T16:54:09.743Z,51.63
2022-11-20T16:56:14.049Z,51.78
2022-11-20T16:58:15.386Z,51.83
2022-11-20T17:00:16.676Z,50.98
2022-11-20T17:02:20.742Z,51.95
2022-11-20T17:04:22.178Z,52.10
2022-11-20T17:06:23.717Z,51.69
2022-11-20T17:08:25.021Z,51.79
2022-11-20T17:10:26.324Z,51.78
2022-11-20T17:12:27.710Z,51.78
2022-11-20T17:14:29.012Z,52.52
2022-11-20T17:16:33.149Z,52.22
2022-11-20T17:18:34.476Z,51.23
2022-11-20T17:20:35.786Z,51.64
2022-11-20T17:22:37.117Z,51.56
2022-11-20T17:24:38.389Z,51.18
2022-11-20T17:26:42.672Z,51.59
2022-11-20T17:28:44.008Z,51.51
2022-11-20T17:30:54.357Z,51.24
2022-11-20T17:32:55.640Z,50.60
2022-11-20T17:35:09.058Z,50.65
2022-11-20T17:37:10.399Z,50.39
2022-11-20T17:39:14.457Z,50.22
2022-11-20T17:41:15.734Z,50.22
2022-11-20T17:43:17.061Z,49.87
2022-11-20T17:45:18.379Z,49.79
2022-11-20T17:47:19.716Z,49.19
2022-11-20T17:49:23.128Z,50.36
2022-11-20T17:51:25.460Z,50.40
2022-11-20T17:53:26.781Z,50.01
2022-11-20T17:55:51.471Z,49.97
2022-11-20T17:57:58.448Z,50.21
2022-11-20T17:59:59.965Z,50.37
2022-11-20T18:02:04.210Z,50.27
2022-11-20T18:04:05.582Z,50.44
2022-11-20T18:06:26.155Z,50.65
2022-11-20T18:08:36.400Z,50.40
2022-11-20T18:10:37.729Z,50.37
2022-11-20T18:12:39.065Z,50.59
2022-11-20T18:14:46.522Z,51.06
2022-11-20T18:16:53.650Z,50.83
2022-11-20T18:18:57.860Z,51.24
2022-11-20T18:21:00.377Z,51.18
2022-11-20T18:23:04.666Z,51.61
2022-11-20T18:25:06.711Z,51.50
2022-11-20T18:27:23.014Z,51.38
2022-11-20T18:29:27.635Z,51.75
2022-11-20T18:31:34.772Z,52.03
2022-11-20T18:33:42.060Z,51.88
2022-11-20T18:35:43.345Z,51.89
2022-11-20T18:37:50.753Z,51.77
2022-11-20T18:39:52.194Z,52.07
2022-11-20T18:42:12.142Z,52.14
2022-11-20T18:44:35.168Z,52.27
2022-11-20T18:46:42.930Z,52.18
2022-11-20T18:48:47.225Z,51.90
2022-11-20T18:50:54.354Z,52.79
2022-11-20T18:55:03.075Z,52.66
2022-11-20T18:57:07.420Z,52.07
2022-11-20T18:59:11.449Z,52.63
2022-11-20T19:01:15.498Z,51.99
2022-11-20T19:03:17.053Z,52.18
2022-11-20T19:05:36.272Z,51.77
2022-11-20T19:07:40.313Z,52.19
2022-11-20T19:09:50.913Z,51.42
2022-11-20T19:11:55.069Z,50.93
2022-11-20T19:14:11.558Z,51.12
2022-11-20T19:16:27.852Z,51.00
2022-11-20T19:18:57.173Z,50.72
2022-11-20T19:21:01.765Z,50.28
2022-11-20T19:23:09.304Z,50.44
2022-11-20T19:25:10.651Z,51.17
2022-11-20T19:27:18.005Z,51.05
2022-11-20T19:29:28.213Z,50.76
2022-11-20T19:31:29.713Z,51.11
2022-11-20T19:33:31.197Z,51.10
2022-11-20T19:35:35.502Z,51.51
2022-11-20T19:37:42.672Z,51.28
2022-11-20T19:39:59.021Z,51.32
2022-11-20T19:42:12.494Z,51.70
2022-11-20T19:44:17.629Z,51.70
2022-11-20T19:46:20.428Z,52.03
2022-11-20T19:48:30.751Z,51.84
2022-11-20T19:50:32.025Z,52.21
2022-11-20T19:52:33.313Z,52.33
2022-11-20T19:54:34.612Z,52.14
2022-11-20T19:56:36.117Z,52.39
2022-11-20T19:58:43.074Z,52.70
2022-11-20T20:00:44.424Z,52.27
2022-11-20T20:02:45.713Z,52.45
2022-11-20T20:04:53.264Z,52.24
2022-11-20T20:06:54.594Z,52.76
2022-11-20T20:08:56.147Z,51.99
2022-11-20T20:10:59.614Z,52.12
2022-11-20T20:13:01.176Z,52.66
2022-11-20T20:15:02.448Z,51.93
2022-11-20T20:17:03.740Z,52.32
2022-11-20T20:19:05.078Z,51.80
2022-11-20T20:21:06.401Z,51.66
2022-11-20T20:23:07.912Z,51.47
2022-11-20T20:25:09.256Z,51.47
2022-11-20T20:27:13.661Z,51.28
2022-11-20T20:29:15.006Z,50.67
2022-11-20T20:31:16.317Z,51.00
2022-11-20T20:33:17.642Z,50.63
2022-11-20T20:35:18.963Z,50.53
2022-11-20T20:37:20.293Z,50.62
2022-11-20T20:39:21.738Z,50.51
2022-11-20T20:41:23.222Z,50.35
2022-11-20T20:43:24.638Z,50.61
2022-11-20T20:45:25.932Z,50.84
2022-11-20T20:47:27.205Z,50.88
2022-11-20T20:49:28.544Z,50.86
2022-11-20T20:51:29.860Z,51.05
2022-11-20T20:53:31.176Z,51.37
2022-11-20T20:55:34.101Z,51.42
2022-11-20T20:57:35.398Z,51.67
2022-11-20T20:59:36.697Z,51.64
2022-11-20T21:01:40.867Z,51.83
2022-11-20T21:03:42.220Z,51.88
2022-11-20T21:05:43.507Z,51.96
2022-11-20T21:08:03.328Z,52.20
2022-11-20T21:10:04.613Z,52.51
2022-11-20T21:12:05.909Z,51.63
2022-11-20T21:14:07.200Z,52.72
2022-11-20T21:16:08.540Z,53.27
2022-11-20T21:18:09.832Z,51.45
2022-11-20T21:20:31.058Z,51.49
2022-11-20T21:22:36.376Z,52.14
2022-11-20T21:24:37.938Z,51.85
2022-11-20T21:26:39.206Z,52.25
2022-11-20T21:28:41.005Z,52.66
2022-11-20T21:30:42.278Z,52.35
2022-11-20T21:32:43.796Z,52.22
2022-11-20T21:34:45.116Z,52.38
2022-11-20T21:36:47.016Z,52.36
2022-11-20T21:38:48.287Z,51.82
2022-11-20T21:40:49.574Z,51.13
2022-11-20T21:42:50.925Z,51.34
2022-11-20T21:44:52.232Z,43.22
2022-11-20T21:46:53.522Z,47.35
2022-11-20T21:48:54.875Z,47.23
2022-11-20T21:50:56.349Z,46.73
2022-11-20T21:52:57.661Z,47.82
2022-11-20T21:54:59.041Z,48.32
2022-11-20T21:57:00.361Z,49.10
2022-11-20T21:59:01.706Z,49.34
2022-11-20T22:01:02.992Z,49.38
2022-11-20T22:03:04.272Z,50.24
2022-11-20T22:05:05.555Z,50.20
2022-11-20T22:07:06.923Z,50.68
2022-11-20T22:09:08.262Z,51.18
2022-11-20T22:11:09.661Z,51.07
2022-11-20T22:13:29.517Z,51.86
2022-11-20T22:15:58.901Z,52.32
2022-11-20T22:18:18.202Z,52.39
2022-11-20T22:20:19.496Z,53.08
2022-11-20T22:22:20.776Z,53.23
2022-11-20T22:24:22.522Z,52.98
2022-11-20T22:26:24.270Z,53.41
2022-11-20T22:28:26.586Z,53.45
2022-11-20T22:30:27.913Z,53.52
2022-11-20T22:32:29.200Z,53.96
2022-11-20T22:34:30.516Z,53.94
2022-11-20T22:36:31.808Z,54.23
2022-11-20T22:38:38.883Z,54.86
2022-11-20T22:40:40.668Z,54.69
2022-11-20T22:42:41.954Z,54.99
2022-11-20T22:44:43.237Z,55.13
2022-11-20T22:46:44.565Z,55.21
2022-11-20T22:48:45.862Z,55.12
2022-11-20T22:50:47.240Z,55.21
2022-11-20T22:52:48.515Z,55.56
2022-11-20T22:54:49.796Z,55.77
2022-11-20T22:56:51.129Z,55.97
2022-11-20T22:58:52.460Z,55.84
2022-11-20T23:00:53.748Z,56.00
2022-11-20T23:02:55.041Z,56.03
2022-11-20T23:04:56.348Z,56.14
2022-11-20T23:06:57.633Z,56.54
2022-11-20T23:08:58.913Z,56.41
2022-11-20T23:11:00.217Z,56.69
2022-11-20T23:13:01.500Z,56.61
2022-11-20T23:15:02.814Z,56.29
2022-11-20T23:17:04.139Z,56.74
2022-11-20T23:19:05.491Z,56.74
2022-11-20T23:21:06.840Z,57.12
2022-11-20T23:23:08.108Z,56.94
2022-11-20T23:25:09.437Z,56.93
2022-11-20T23:27:10.720Z,56.92
2022-11-20T23:29:12.843Z,56.69
2022-11-20T23:31:14.208Z,56.42
2022-11-20T23:33:15.559Z,56.25
2022-11-20T23:35:16.836Z,55.82
2022-11-20T23:37:18.137Z,55.49
2022-11-20T23:39:20.152Z,55.55
2022-11-20T23:41:21.492Z,55.22
2022-11-20T23:43:22.793Z,54.82
2022-11-20T23:45:24.131Z,54.80
2022-11-20T23:47:25.430Z,54.63
2022-11-20T23:49:26.698Z,54.57
2022-11-20T23:51:28.038Z,54.86
2022-11-20T23:53:29.324Z,54.48
2022-11-20T23:55:30.625Z,54.55
2022-11-20T23:57:31.916Z,54.39
2022-11-20T23:59:33.241Z,54.49
